Time;durP1;ratioP1;P1;durP2;ratioP2;P2;SDS_P1;SDS_P2;PMS_P1;PMS_P2;Temp;Humidity;BMP_temperature;BMP_pressure;BME280_temperature;BME280_humidity;BME280_pressure;Samples;Min_cycle;Max_cycle;Signal;HPM_P1;HPM_P2
2023/07/24 00:01:56;;;;;;;;;3.80;3.00;;;;;19.13;74.90;98876.69;5012840;28;8836;-61
2023/07/24 00:04:24;;;;;;;;;2.80;1.60;;;;;19.18;74.31;98873.41;5013579;28;8843;-58
2023/07/24 00:06:52;;;;;;;;;4.00;3.40;;;;;19.22;74.76;98880.94;5012713;28;8872;-59
2023/07/24 00:09:19;;;;;;;;;3.20;3.00;;;;;19.24;74.63;98868.06;5013873;28;8810;-59
2023/07/24 00:11:47;;;;;;;;;2.20;2.20;;;;;19.28;74.03;98873.91;5015699;28;8965;-59
2023/07/24 00:14:15;;;;;;;;;1.20;1.00;;;;;19.29;74.07;98872.84;5021629;28;8864;-60
2023/07/24 00:16:42;;;;;;;;;3.20;3.00;;;;;19.29;74.21;98871.00;5035914;28;8816;-59
2023/07/24 00:19:10;;;;;;;;;1.00;1.00;;;;;19.29;74.71;98867.44;5033951;28;8818;-59
2023/07/24 00:21:37;;;;;;;;;6.20;4.40;;;;;19.29;74.18;98865.59;5035064;28;8812;-59
2023/07/24 00:24:05;;;;;;;;;4.00;3.00;;;;;19.29;74.19;98859.34;5035234;28;8808;-59
2023/07/24 00:26:33;;;;;;;;;4.40;3.80;;;;;19.29;74.74;98860.19;5034296;28;8851;-59
2023/07/24 00:29:01;;;;;;;;;1.00;1.00;;;;;19.29;74.19;98852.09;5030563;28;8808;-59
2023/07/24 00:31:29;;;;;;;;;3.40;3.00;;;;;19.28;74.20;98855.81;5035301;28;8820;-59
2023/07/24 00:33:59;;;;;;;;;1.40;1.40;;;;;19.28;74.25;98858.50;5035083;28;8832;-59
2023/07/24 00:36:27;;;;;;;;;3.60;3.60;;;;;19.28;74.86;98850.41;5035510;28;8828;-60
2023/07/24 00:38:55;;;;;;;;;1.20;1.20;;;;;19.27;74.61;98856.84;5033904;28;8827;-60
2023/07/24 00:41:23;;;;;;;;;1.00;1.00;;;;;19.27;74.42;98846.03;5034645;28;8808;-59
2023/07/24 00:43:50;;;;;;;;;1.60;1.60;;;;;19.27;74.10;98837.13;5034969;28;8831;-59
2023/07/24 00:46:18;;;;;;;;;3.80;3.60;;;;;19.26;74.32;98832.78;5034958;28;8842;-60
2023/07/24 00:48:47;;;;;;;;;3.80;3.00;;;;;19.24;74.33;98830.28;5022653;28;8849;-59
2023/07/24 00:51:14;;;;;;;;;3.00;3.00;;;;;19.25;74.63;98822.97;5026800;28;9673;-59
2023/07/24 00:53:42;;;;;;;;;3.60;3.20;;;;;19.23;74.23;98822.38;5026045;28;8811;-59
2023/07/24 00:56:10;;;;;;;;;3.00;3.00;;;;;19.20;74.35;98829.00;5014805;28;8814;-59
2023/07/24 00:58:37;;;;;;;;;1.00;1.00;;;;;19.19;74.44;98827.34;5030430;28;8847;-61
2023/07/24 01:01:05;;;;;;;;;1.60;1.60;;;;;19.17;74.61;98821.28;5014814;28;9524;-60
2023/07/24 01:03:33;;;;;;;;;3.20;2.00;;;;;19.14;74.53;98819.00;5023537;28;8812;-59
2023/07/24 01:06:00;;;;;;;;;3.00;2.40;;;;;19.09;74.15;98818.78;5026797;28;9499;-59
2023/07/24 01:08:28;;;;;;;;;3.60;3.00;;;;;19.03;74.79;98816.06;5016158;28;8899;-58
2023/07/24 01:10:58;;;;;;;;;2.40;1.00;;;;;18.98;74.58;98816.66;5014579;28;8834;-61
2023/07/24 01:13:25;;;;;;;;;1.00;1.00;;;;;18.93;74.84;98819.13;5030437;28;8819;-59
2023/07/24 01:15:53;;;;;;;;;3.00;3.00;;;;;18.91;74.56;98818.50;5022868;28;8996;-59
2023/07/24 01:18:20;;;;;;;;;1.20;1.00;;;;;18.89;74.63;98815.16;5034106;28;8816;-60
2023/07/24 01:20:48;;;;;;;;;1.80;1.00;;;;;18.88;74.69;98808.13;5033973;28;8867;-60
2023/07/24 01:23:18;;;;;;;;;1.00;1.00;;;;;18.84;75.03;98800.63;5033767;28;8858;-59
2023/07/24 01:25:45;;;;;;;;;4.80;4.80;;;;;18.84;74.90;98806.03;5034429;28;8824;-58
2023/07/24 01:28:13;;;;;;;;;1.80;1.80;;;;;18.86;74.83;98803.94;5034172;28;8836;-59
2023/07/24 01:30:41;;;;;;;;;3.00;3.00;;;;;18.90;74.73;98797.94;5033861;28;8854;-58
2023/07/24 01:33:08;;;;;;;;;2.60;2.20;;;;;18.95;74.86;98802.72;5033459;28;8846;-59
2023/07/24 01:35:36;;;;;;;;;1.00;1.00;;;;;18.97;74.41;98796.09;5034119;28;8928;-61
2023/07/24 01:38:04;;;;;;;;;1.60;1.20;;;;;18.98;74.21;98797.75;5033775;28;8827;-59
2023/07/24 01:40:31;;;;;;;;;1.00;1.00;;;;;18.99;74.28;98794.06;5034405;28;8816;-59
2023/07/24 01:42:59;;;;;;;;;3.00;3.00;;;;;18.96;74.70;98794.44;5034123;28;8844;-59
2023/07/24 01:45:27;;;;;;;;;3.00;1.00;;;;;18.94;74.65;98791.13;5034019;28;8883;-59
2023/07/24 01:47:54;;;;;;;;;5.20;4.00;;;;;18.91;74.61;98786.09;5033853;28;8832;-60
2023/07/24 01:50:22;;;;;;;;;3.60;3.00;;;;;18.88;74.75;98783.81;5033484;28;8851;-61
2023/07/24 01:52:50;;;;;;;;;1.40;1.00;;;;;18.86;74.52;98775.13;5029234;28;8847;-60
2023/07/24 01:55:18;;;;;;;;;0.40;0.40;;;;;18.84;74.93;98774.50;5033023;28;8851;-59
2023/07/24 01:57:46;;;;;;;;;1.00;1.00;;;;;18.82;74.82;98767.63;5024841;28;8837;-59
2023/07/24 02:00:13;;;;;;;;;1.00;1.00;;;;;18.82;74.81;98763.03;5013659;28;8829;-60
2023/07/24 02:02:41;;;;;;;;;1.60;1.60;;;;;18.80;74.83;98762.44;5013813;28;8818;-60
2023/07/24 02:05:09;;;;;;;;;4.00;3.00;;;;;18.80;74.64;98761.59;5014486;28;8838;-59
2023/07/24 02:07:36;;;;;;;;;3.40;2.20;;;;;18.78;74.48;98756.41;5014315;28;8995;-59
2023/07/24 02:10:04;;;;;;;;;3.60;3.60;;;;;18.76;74.82;98761.16;5014323;28;8853;-59
2023/07/24 02:12:31;;;;;;;;;3.00;3.00;;;;;18.75;75.00;98756.81;5014016;28;8830;-59
2023/07/24 02:14:59;;;;;;;;;1.00;1.00;;;;;18.75;74.95;98753.28;5014150;28;8860;-60
2023/07/24 02:17:27;;;;;;;;;3.80;3.60;;;;;18.75;74.81;98748.69;5016054;28;8935;-60
2023/07/24 02:19:55;;;;;;;;;4.00;3.40;;;;;18.76;74.18;98750.38;5016529;28;8903;-60
2023/07/24 02:22:22;;;;;;;;;1.00;1.00;;;;;18.76;74.40;98744.97;5014033;28;8841;-60
2023/07/24 02:24:50;;;;;;;;;3.40;2.60;;;;;18.77;74.62;98749.34;5014039;28;8922;-60
2023/07/24 02:27:18;;;;;;;;;5.20;3.40;;;;;18.78;74.41;98736.69;5014936;28;8853;-59
2023/07/24 02:29:45;;;;;;;;;1.00;1.00;;;;;18.79;74.24;98732.94;5029978;28;8824;-61
2023/07/24 02:32:13;;;;;;;;;4.40;4.00;;;;;18.81;74.33;98731.72;5032915;28;8828;-59
2023/07/24 02:34:40;;;;;;;;;4.00;3.80;;;;;18.83;74.62;98718.03;5032181;28;8808;-59
2023/07/24 02:37:08;;;;;;;;;2.20;1.80;;;;;18.85;74.78;98726.75;5032217;28;8853;-59
2023/07/24 02:39:37;;;;;;;;;4.80;4.00;;;;;18.86;74.47;98714.91;5032775;28;8812;-61
2023/07/24 02:42:04;;;;;;;;;3.60;3.00;;;;;18.86;74.14;98718.44;5033711;28;8912;-59
2023/07/24 02:44:32;;;;;;;;;3.00;3.00;;;;;18.87;74.10;98721.97;5033670;28;8851;-59
2023/07/24 02:46:59;;;;;;;;;3.20;1.00;;;;;18.86;74.04;98717.59;5033375;28;8924;-61
2023/07/24 02:49:27;;;;;;;;;4.00;4.00;;;;;18.85;74.53;98716.78;5033783;28;8832;-59
2023/07/24 02:51:54;;;;;;;;;3.00;3.00;;;;;18.84;74.80;98711.59;5032103;28;8840;-60
2023/07/24 02:54:22;;;;;;;;;3.20;2.00;;;;;18.83;74.42;98710.75;5029298;28;8855;-60
2023/07/24 02:56:50;;;;;;;;;3.20;3.00;;;;;18.82;74.51;98700.19;5032412;28;8850;-60
2023/07/24 02:59:17;;;;;;;;;3.80;3.80;;;;;18.83;74.51;98708.06;5013699;28;9530;-60
2023/07/24 03:01:45;;;;;;;;;4.00;3.00;;;;;18.83;74.38;98708.06;5013761;28;8834;-59
2023/07/24 03:04:13;;;;;;;;;1.80;1.00;;;;;18.82;74.30;98714.50;5014454;28;8830;-59
2023/07/24 03:06:40;;;;;;;;;2.20;2.20;;;;;18.81;74.91;98712.84;5013547;28;8861;-59
2023/07/24 03:09:08;;;;;;;;;3.80;3.20;;;;;18.81;74.31;98710.13;5014523;28;8840;-60
2023/07/24 03:11:36;;;;;;;;;5.20;3.80;;;;;18.83;74.66;98702.66;5014299;28;8856;-58
2023/07/24 03:14:03;;;;;;;;;3.20;2.60;;;;;18.85;74.62;98702.47;5013344;28;9474;-61
2023/07/24 03:16:31;;;;;;;;;3.20;3.00;;;;;18.87;74.32;98690.44;5013347;28;8849;-59
2023/07/24 03:18:59;;;;;;;;;3.40;3.00;;;;;18.89;74.41;98685.66;5018698;28;8820;-59
2023/07/24 03:21:26;;;;;;;;;3.80;3.80;;;;;18.91;74.37;98666.56;5032967;28;8808;-58
2023/07/24 03:23:54;;;;;;;;;1.60;1.60;;;;;18.93;74.63;98654.53;5033011;28;9522;-60
2023/07/24 03:26:22;;;;;;;;;3.00;2.60;;;;;18.95;73.89;98651.63;5033225;28;9509;-60
2023/07/24 03:28:49;;;;;;;;;3.00;3.00;;;;;18.96;74.07;98664.91;5033030;28;9856;-60
2023/07/24 03:31:17;;;;;;;;;3.60;3.60;;;;;18.96;73.92;98683.81;5032850;28;8820;-60
2023/07/24 03:33:44;;;;;;;;;1.40;1.40;;;;;18.87;73.83;98679.66;5032694;28;9501;-59
2023/07/24 03:36:12;;;;;;;;;3.00;3.00;;;;;18.81;74.62;98680.47;5032398;28;8828;-61
2023/07/24 03:38:40;;;;;;;;;3.00;2.20;;;;;18.76;74.46;98680.22;5032401;28;8848;-60
2023/07/24 03:41:07;;;;;;;;;4.00;3.60;;;;;18.76;74.20;98669.44;5032574;28;8855;-61
2023/07/24 03:43:35;;;;;;;;;4.00;3.60;;;;;18.76;74.88;98658.66;5032476;28;9512;-58
2023/07/24 03:46:02;;;;;;;;;4.00;3.80;;;;;18.78;74.36;98648.50;5034553;28;8866;-59
2023/07/24 03:48:30;;;;;;;;;3.00;3.00;;;;;18.79;74.33;98647.47;5035639;28;8932;-59
2023/07/24 03:50:57;;;;;;;;;6.00;4.00;;;;;18.78;74.60;98648.50;5035685;28;8828;-61
2023/07/24 03:53:25;;;;;;;;;4.00;3.80;;;;;18.74;74.32;98641.03;5035481;28;8945;-60
2023/07/24 03:55:52;;;;;;;;;4.00;4.00;;;;;18.70;74.86;98653.25;5035692;28;8820;-61
2023/07/24 03:58:20;;;;;;;;;4.40;4.00;;;;;18.66;74.96;98639.34;5035509;28;8816;-61
2023/07/24 04:00:48;;;;;;;;;4.80;4.00;;;;;18.67;74.84;98646.41;5035239;28;8836;-58
2023/07/24 04:03:15;;;;;;;;;3.60;2.20;;;;;18.69;74.57;98636.25;5022095;28;8953;-60
2023/07/24 04:05:43;;;;;;;;;3.20;3.20;;;;;18.72;74.87;98638.53;5030446;28;8836;-60
2023/07/24 04:08:11;;;;;;;;;4.40;3.60;;;;;18.75;74.61;98632.72;5032293;28;8866;-60
2023/07/24 04:10:39;;;;;;;;;3.20;3.00;;;;;18.78;74.33;98632.31;5015370;28;8849;-59
2023/07/24 04:13:06;;;;;;;;;5.20;4.00;;;;;18.81;74.48;98623.81;5014923;28;8826;-58
2023/07/24 04:15:34;;;;;;;;;3.00;3.00;;;;;18.84;74.45;98615.31;5014822;28;8843;-60
2023/07/24 04:18:01;;;;;;;;;2.80;2.80;;;;;18.88;73.85;98618.44;5026061;28;8832;-59
2023/07/24 04:20:29;;;;;;;;;0.60;0.00;;;;;18.91;74.10;98629.59;5035007;28;8824;-59
2023/07/24 04:22:57;;;;;;;;;4.00;3.40;;;;;18.91;73.96;98632.31;5034668;28;8812;-58
2023/07/24 04:25:24;;;;;;;;;4.00;3.80;;;;;18.94;73.98;98634.63;5034808;28;8857;-59
2023/07/24 04:27:52;;;;;;;;;2.20;1.80;;;;;18.96;73.76;98637.13;5035148;28;8882;-58
2023/07/24 04:30:21;;;;;;;;;3.00;3.00;;;;;18.98;74.09;98630.44;5029597;28;8814;-59
2023/07/24 04:32:49;;;;;;;;;2.00;2.00;;;;;19.00;73.73;98625.69;5015138;28;8826;-58
2023/07/24 04:35:17;;;;;;;;;6.00;5.20;;;;;19.03;73.61;98627.16;5025860;28;8866;-58
2023/07/24 04:37:44;;;;;;;;;5.00;3.60;;;;;19.06;73.89;98632.94;5015848;28;8822;-59
2023/07/24 04:40:12;;;;;;;;;3.40;3.40;;;;;19.10;73.27;98639.59;5017657;28;8814;-59
2023/07/24 04:42:39;;;;;;;;;6.00;5.40;;;;;19.15;73.63;98636.28;5034781;28;8836;-59
2023/07/24 04:45:07;;;;;;;;;3.40;3.40;;;;;19.19;73.72;98638.38;5033503;28;9548;-59
2023/07/24 04:47:36;;;;;;;;;8.20;6.00;;;;;19.21;73.40;98639.00;5034315;28;8869;-59
2023/07/24 04:50:04;;;;;;;;;3.20;1.40;;;;;19.26;73.77;98636.50;5033133;28;8849;-59
2023/07/24 04:52:32;;;;;;;;;3.60;2.80;;;;;19.28;73.90;98634.41;5034246;28;8938;-58
2023/07/24 04:55:00;;;;;;;;;5.40;4.00;;;;;19.31;73.72;98634.03;5031733;28;8881;-59
2023/07/24 04:57:27;;;;;;;;;3.60;3.00;;;;;19.34;73.63;98630.88;5014526;28;8866;-58
2023/07/24 04:59:55;;;;;;;;;4.60;4.60;;;;;19.37;73.00;98627.78;5031677;28;8823;-59
2023/07/24 05:02:23;;;;;;;;;2.20;1.00;;;;;19.40;73.51;98626.50;5031611;28;8831;-59
2023/07/24 05:04:51;;;;;;;;;3.40;3.40;;;;;19.40;73.03;98619.25;5032048;28;8832;-59
2023/07/24 05:07:18;;;;;;;;;1.60;1.60;;;;;19.43;73.72;98621.53;5016492;28;8968;-59
2023/07/24 05:09:46;;;;;;;;;6.20;3.00;;;;;19.47;73.30;98620.06;5028142;28;8824;-59
2023/07/24 05:12:14;;;;;;;;;3.60;3.60;;;;;19.50;73.54;98630.44;5033799;28;8920;-58
2023/07/24 05:14:41;;;;;;;;;3.00;3.00;;;;;19.54;73.29;98631.69;5030035;28;8828;-58
2023/07/24 05:17:09;;;;;;;;;1.00;1.00;;;;;19.57;73.23;98631.28;5025696;28;8938;-59
2023/07/24 05:19:36;;;;;;;;;2.60;2.60;;;;;19.60;73.07;98636.25;5034217;28;8867;-59
2023/07/24 05:22:04;;;;;;;;;3.00;3.00;;;;;19.67;72.76;98636.25;5033787;28;8821;-59
2023/07/24 05:24:32;;;;;;;;;3.60;3.60;;;;;19.70;72.82;98636.66;5033923;28;8878;-59
2023/07/24 05:26:59;;;;;;;;;4.80;4.20;;;;;19.74;72.47;98637.06;5034462;28;8824;-59
2023/07/24 05:29:27;;;;;;;;;4.20;1.80;;;;;19.75;72.47;98633.31;5033556;28;8855;-60
2023/07/24 05:31:55;;;;;;;;;5.20;4.00;;;;;19.72;73.01;98639.97;5033755;28;8828;-59
2023/07/24 05:34:23;;;;;;;;;2.40;2.20;;;;;19.56;72.94;98645.00;5033233;28;8824;-58
2023/07/24 05:36:50;;;;;;;;;2.80;1.80;;;;;19.36;73.73;98645.00;5033786;28;8835;-59
2023/07/24 05:39:18;;;;;;;;;4.60;2.80;;;;;19.17;74.48;98643.13;5033972;28;8867;-59
2023/07/24 05:41:46;;;;;;;;;4.00;3.40;;;;;19.02;74.98;98647.91;5033433;28;8878;-58
2023/07/24 05:44:14;;;;;;;;;3.80;3.80;;;;;18.93;74.99;98651.00;5033604;28;8852;-58
2023/07/24 05:46:41;;;;;;;;;5.00;5.00;;;;;18.82;75.83;98647.03;5034041;28;8820;-60
2023/07/24 05:49:09;;;;;;;;;6.00;4.60;;;;;18.67;75.94;98649.09;5033252;28;8848;-59
2023/07/24 05:51:36;;;;;;;;;4.00;4.00;;;;;18.56;76.24;98657.78;5033296;28;8832;-59
2023/07/24 05:54:04;;;;;;;;;3.60;3.20;;;;;18.46;76.85;98641.19;5032853;28;8958;-59
2023/07/24 05:56:33;;;;;;;;;4.40;4.00;;;;;18.41;77.33;98654.44;5032391;28;8859;-58
2023/07/24 05:59:01;;;;;;;;;5.60;5.20;;;;;18.39;77.24;98651.13;5033279;28;8832;-59
2023/07/24 06:01:28;;;;;;;;;6.00;5.20;;;;;18.38;77.53;98659.41;5019425;28;8823;-58
2023/07/24 06:03:56;;;;;;;;;4.00;4.00;;;;;18.38;77.14;98672.88;5014412;28;8830;-58
2023/07/24 06:06:24;;;;;;;;;5.60;5.60;;;;;18.35;77.70;98676.81;5016813;28;8831;-59
2023/07/24 06:08:51;;;;;;;;;4.40;4.40;;;;;18.30;77.99;98687.34;5024885;28;8854;-59
2023/07/24 06:11:19;;;;;;;;;4.00;4.00;;;;;18.28;78.25;98691.28;5014056;28;8915;-60
2023/07/24 06:13:47;;;;;;;;;3.00;1.00;;;;;18.20;78.42;98697.66;5012937;28;8849;-60
2023/07/24 06:16:14;;;;;;;;;3.20;3.20;;;;;18.13;78.44;98694.09;5013165;28;8826;-58
2023/07/24 06:18:43;;;;;;;;;4.80;4.00;;;;;18.11;78.75;98698.88;5025109;28;8812;-56
2023/07/24 06:21:11;;;;;;;;;4.00;4.00;;;;;18.11;78.74;98696.16;5032848;28;8836;-57
2023/07/24 06:23:38;;;;;;;;;3.80;3.80;;;;;18.20;78.09;98700.34;5019177;28;8834;-59
2023/07/24 06:26:06;;;;;;;;;4.20;3.20;;;;;18.24;78.51;98685.44;5014428;28;8865;-58
2023/07/24 06:28:34;;;;;;;;;4.00;3.40;;;;;18.25;78.23;98691.66;5014260;28;8865;-58
2023/07/24 06:31:01;;;;;;;;;4.00;4.00;;;;;18.28;78.14;98699.38;5014237;28;8933;-59
2023/07/24 06:33:29;;;;;;;;;5.60;5.60;;;;;18.31;78.40;98701.69;5014412;28;9828;-60
2023/07/24 06:35:57;;;;;;;;;4.80;4.40;;;;;18.34;78.55;98704.81;5026324;28;8820;-57
2023/07/24 06:38:25;;;;;;;;;4.40;4.00;;;;;18.44;78.55;98690.94;5022124;28;8846;-58
2023/07/24 06:40:53;;;;;;;;;3.80;3.80;;;;;18.56;78.09;98700.94;5032713;28;9282;-58
2023/07/24 06:43:20;;;;;;;;;5.20;4.00;;;;;18.57;78.07;98699.91;5030225;28;8831;-58
2023/07/24 06:45:48;;;;;;;;;6.80;6.80;;;;;18.52;78.36;98701.56;5031682;28;9612;-57
2023/07/24 06:48:16;;;;;;;;;3.40;3.40;;;;;18.49;79.08;98694.69;5019292;28;8822;-57
2023/07/24 06:50:43;;;;;;;;;5.20;5.20;;;;;18.53;78.70;98700.50;5012306;28;8846;-58
2023/07/24 06:53:11;;;;;;;;;0.60;0.60;;;;;18.56;78.80;98698.25;5012845;28;8933;-59
2023/07/24 06:55:39;;;;;;;;;3.00;3.00;;;;;18.67;77.91;98692.25;5028462;28;8832;-58
2023/07/24 06:58:07;;;;;;;;;6.60;5.60;;;;;18.76;77.67;98695.59;5030469;28;8836;-57
2023/07/24 07:00:34;;;;;;;;;5.60;5.20;;;;;18.78;78.06;98691.66;5031537;28;8809;-58
2023/07/24 07:03:02;;;;;;;;;4.00;4.00;;;;;18.79;78.17;98684.38;5030328;28;8808;-58
2023/07/24 07:05:30;;;;;;;;;9.00;9.00;;;;;18.85;77.58;98684.41;5031851;28;9527;-58
2023/07/24 07:07:58;;;;;;;;;7.00;6.00;;;;;18.96;77.51;98675.69;5030419;28;8843;-59
2023/07/24 07:10:25;;;;;;;;;6.00;6.00;;;;;19.12;77.38;98680.69;5012637;28;8967;-58
2023/07/24 07:12:53;;;;;;;;;6.00;5.80;;;;;19.27;77.11;98673.25;5011747;28;8806;-57
2023/07/24 07:15:21;;;;;;;;;5.20;4.00;;;;;19.39;76.23;98681.56;5012825;28;8847;-57
2023/07/24 07:17:49;;;;;;;;;5.20;4.40;;;;;19.50;76.32;98675.53;5018711;28;8939;-59
2023/07/24 07:20:16;;;;;;;;;4.00;3.00;;;;;19.56;76.17;98683.63;5031359;28;8828;-58
2023/07/24 07:22:44;;;;;;;;;5.60;5.60;;;;;19.62;75.88;98681.97;5032194;28;8970;-59
2023/07/24 07:25:12;;;;;;;;;6.00;6.00;;;;;19.71;75.65;98673.44;5032480;28;8846;-58
2023/07/24 07:27:40;;;;;;;;;5.80;4.00;;;;;19.87;75.05;98681.09;5032379;28;8832;-58
2023/07/24 07:30:08;;;;;;;;;5.20;2.40;;;;;20.07;74.79;98667.53;5031643;28;8983;-58
2023/07/24 07:32:36;;;;;;;;;5.40;4.20;;;;;20.26;74.30;98670.16;5032080;28;8824;-58
2023/07/24 07:35:04;;;;;;;;;4.20;4.20;;;;;20.40;73.80;98655.53;5031949;28;8843;-58
2023/07/24 07:37:31;;;;;;;;;9.20;8.20;;;;;20.50;73.90;98653.22;5031769;28;8824;-58
2023/07/24 07:39:59;;;;;;;;;4.60;3.60;;;;;20.61;73.55;98643.56;5031406;28;8820;-58
2023/07/24 07:42:27;;;;;;;;;5.40;4.40;;;;;20.71;73.70;98647.47;5031214;28;8844;-58
2023/07/24 07:44:54;;;;;;;;;7.20;7.20;;;;;20.87;73.35;98633.47;5031234;28;8986;-58
2023/07/24 07:47:22;;;;;;;;;3.60;2.00;;;;;21.00;72.68;98638.75;5031459;28;9498;-58
2023/07/24 07:49:50;;;;;;;;;7.00;5.00;;;;;21.15;72.23;98640.09;5030905;28;8962;-58
2023/07/24 07:52:18;;;;;;;;;6.60;6.60;;;;;21.25;71.87;98640.44;5031484;28;8900;-59
2023/07/24 07:54:46;;;;;;;;;7.20;5.80;;;;;21.31;71.96;98638.69;5031287;28;8836;-59
2023/07/24 07:57:13;;;;;;;;;4.80;4.60;;;;;21.39;71.88;98646.53;5031196;28;8858;-58
2023/07/24 07:59:41;;;;;;;;;7.00;5.80;;;;;21.45;71.66;98645.66;5031669;28;8840;-58
2023/07/24 08:02:09;;;;;;;;;7.00;6.20;;;;;21.51;71.58;98639.34;5026435;28;8858;-58
2023/07/24 08:04:37;;;;;;;;;4.60;4.00;;;;;21.54;71.13;98641.63;5010895;28;8842;-58
2023/07/24 08:07:05;;;;;;;;;5.00;5.00;;;;;21.60;71.47;98643.44;5010707;28;8906;-60
2023/07/24 08:09:33;;;;;;;;;6.80;5.40;;;;;21.63;71.52;98638.41;5012134;28;8833;-61
2023/07/24 08:12:01;;;;;;;;;5.00;5.00;;;;;21.65;71.53;98646.31;5010281;28;8811;-58
2023/07/24 08:14:29;;;;;;;;;4.80;4.60;;;;;21.63;71.19;98649.25;5015657;28;8832;-59
2023/07/24 08:16:57;;;;;;;;;5.80;5.80;;;;;21.59;71.46;98645.34;5030378;28;8832;-59
2023/07/24 08:19:25;;;;;;;;;7.00;7.00;;;;;21.58;71.57;98640.13;5017227;28;8822;-59
2023/07/24 08:21:52;;;;;;;;;7.00;7.00;;;;;21.60;71.69;98633.44;5009629;28;8949;-58
2023/07/24 08:24:21;;;;;;;;;7.00;5.40;;;;;21.71;70.82;98624.59;5009828;28;8830;-59
2023/07/24 08:26:49;;;;;;;;;7.80;7.60;;;;;21.80;70.77;98635.97;5011237;28;8846;-58
2023/07/24 08:29:16;;;;;;;;;5.20;4.60;;;;;21.82;70.54;98623.00;5015031;28;8894;-59
2023/07/24 08:31:45;;;;;;;;;5.00;5.00;;;;;21.78;70.51;98619.13;5011980;28;8842;-59
2023/07/24 08:34:13;;;;;;;;;8.00;7.00;;;;;21.75;70.82;98625.81;5015129;28;8814;-60
2023/07/24 08:36:40;;;;;;;;;7.00;7.00;;;;;21.85;70.57;98641.56;5014518;28;8830;-58
2023/07/24 08:39:08;;;;;;;;;8.80;8.00;;;;;21.87;70.28;98620.47;5015861;28;8826;-59
2023/07/24 08:41:37;;;;;;;;;4.20;4.00;;;;;21.84;70.73;98624.44;5023910;28;9514;-60
2023/07/24 08:44:05;;;;;;;;;7.60;3.20;;;;;21.88;70.48;98614.78;5035127;28;8840;-59
2023/07/24 08:46:32;;;;;;;;;5.40;5.00;;;;;22.03;69.90;98622.56;5014196;28;8818;-59
2023/07/24 08:49:01;;;;;;;;;6.80;6.00;;;;;22.14;69.24;98611.78;5013550;28;8846;-59
2023/07/24 08:51:29;;;;;;;;;8.80;6.60;;;;;22.31;69.11;98617.41;5029546;28;8812;-59
2023/07/24 08:53:57;;;;;;;;;7.40;4.80;;;;;22.53;68.43;98605.84;5032717;28;8809;-59
2023/07/24 08:56:24;;;;;;;;;4.00;4.00;;;;;22.68;68.04;98616.31;5016579;28;8865;-59
2023/07/24 08:58:55;;;;;;;;;4.20;4.20;;;;;22.69;68.36;98617.97;5028876;28;8839;-58
2023/07/24 09:01:26;;;;;;;;;4.40;4.40;;;;;22.69;67.87;98623.38;5033337;28;8827;-60
2023/07/24 09:03:54;;;;;;;;;7.60;6.40;;;;;22.70;67.76;98619.59;5033938;28;8932;-58
2023/07/24 09:06:22;;;;;;;;;9.80;9.80;;;;;22.69;67.90;98612.53;5017866;28;8822;-59
2023/07/24 09:08:50;;;;;;;;;5.00;5.00;;;;;22.71;67.83;98621.25;5013171;28;8838;-60
2023/07/24 09:11:18;;;;;;;;;6.20;6.20;;;;;22.67;67.94;98610.03;5016409;28;8950;-60
2023/07/24 09:13:46;;;;;;;;;7.20;6.40;;;;;22.64;67.95;98610.50;5033834;28;8848;-59
2023/07/24 09:16:14;;;;;;;;;8.00;6.20;;;;;22.77;67.55;98607.56;5021440;28;8910;-60
2023/07/24 09:18:42;;;;;;;;;6.80;6.80;;;;;22.84;67.33;98610.22;5034103;28;8839;-59
2023/07/24 09:21:11;;;;;;;;;6.80;6.80;;;;;22.82;67.79;98625.88;5033751;28;8816;-59
2023/07/24 09:23:40;;;;;;;;;4.80;4.00;;;;;22.87;67.27;98615.16;5034216;28;8823;-59
2023/07/24 09:26:08;;;;;;;;;7.60;7.60;;;;;22.88;67.32;98616.81;5035263;28;8923;-60
2023/07/24 09:28:36;;;;;;;;;8.00;5.00;;;;;22.82;67.50;98613.16;5034304;28;8864;-59
2023/07/24 09:31:04;;;;;;;;;7.60;6.40;;;;;22.75;67.57;98622.44;5034538;28;8862;-61
2023/07/24 09:33:32;;;;;;;;;8.80;8.00;;;;;22.65;67.33;98611.31;5034087;28;8820;-59
2023/07/24 09:36:00;;;;;;;;;8.60;8.40;;;;;22.57;67.38;98606.22;5033943;28;9489;-60
2023/07/24 09:38:29;;;;;;;;;10.40;7.80;;;;;22.57;67.46;98601.63;5033799;28;8868;-59
2023/07/24 09:40:57;;;;;;;;;9.00;8.00;;;;;22.55;67.85;98602.91;5032868;28;8828;-60
2023/07/24 09:43:24;;;;;;;;;7.60;7.60;;;;;22.53;67.41;98614.00;5033669;28;8840;-59
2023/07/24 09:46:07;;;;;;;;;6.60;6.20;;;;;22.45;68.02;98610.75;5033696;28;8843;-59
2023/07/24 09:48:35;;;;;;;;;8.20;6.40;;;;;22.36;67.53;98603.97;5033106;28;8859;-59
2023/07/24 09:51:10;;;;;;;;;8.80;8.80;;;;;22.36;67.53;98610.25;5033162;28;8974;-60
2023/07/24 09:53:38;;;;;;;;;9.80;8.00;;;;;22.32;67.58;98616.34;5033165;28;8824;-59
2023/07/24 09:56:06;;;;;;;;;12.80;11.60;;;;;22.22;67.88;98621.47;5033434;28;8847;-59
2023/07/24 09:58:34;;;;;;;;;16.80;14.20;;;;;22.09;67.91;98616.25;5032716;28;8840;-59
2023/07/24 10:01:02;;;;;;;;;11.00;9.40;;;;;21.98;68.39;98612.41;5032487;28;8848;-59
2023/07/24 10:03:30;;;;;;;;;8.80;8.80;;;;;21.90;68.40;98604.56;5023750;28;8822;-60
2023/07/24 10:05:58;;;;;;;;;12.00;11.00;;;;;21.93;68.81;98606.00;5012620;28;8956;-61
2023/07/24 10:11:35;;;;;;;;;10.40;9.80;;;;;21.89;68.17;98599.38;5013714;28;9496;-59
2023/07/24 10:20:15;;;;;;;;;10.60;8.60;;;;;21.15;70.25;98595.94;5014280;28;8774;-59
2023/07/24 10:22:44;;;;;;;;;8.00;8.00;;;;;21.20;70.14;98593.41;5013736;28;8829;-59
2023/07/24 10:25:12;;;;;;;;;11.00;9.40;;;;;21.32;70.20;98588.88;5015441;28;8860;-59
2023/07/24 10:27:40;;;;;;;;;8.40;8.00;;;;;21.61;69.65;98590.88;5012694;28;8831;-61
2023/07/24 10:30:08;;;;;;;;;9.20;8.40;;;;;21.79;69.19;98591.75;5013077;28;8818;-61
2023/07/24 10:32:57;;;;;;;;;7.80;7.80;;;;;21.83;68.85;98592.97;5013273;28;8854;-59
2023/07/24 10:35:26;;;;;;;;;3.80;3.80;;;;;21.81;68.60;98594.25;5013073;28;9642;-59
2023/07/24 10:37:54;;;;;;;;;8.00;7.20;;;;;21.79;68.78;98588.22;5012330;28;8854;-59
2023/07/24 10:40:23;;;;;;;;;11.80;8.80;;;;;21.81;68.85;98589.66;5013245;28;8836;-60
2023/07/24 10:42:51;;;;;;;;;6.60;6.60;;;;;21.90;68.17;98584.75;5013386;28;8822;-60
2023/07/24 10:45:19;;;;;;;;;6.40;5.00;;;;;22.02;67.90;98574.81;5017987;28;8824;-59
2023/07/24 10:54:05;;;;;;;;;2.00;2.00;;;;;22.85;66.38;98571.13;5013074;28;8795;-58
2023/07/24 10:56:34;;;;;;;;;5.00;4.40;;;;;23.00;66.01;98574.22;5027278;28;8836;-59
2023/07/24 10:59:02;;;;;;;;;5.20;5.20;;;;;23.05;65.90;98569.75;5030972;28;8892;-59
2023/07/24 11:01:30;;;;;;;;;4.00;4.00;;;;;23.04;66.19;98569.97;5014085;28;8834;-59
2023/07/24 11:03:59;;;;;;;;;5.00;4.40;;;;;23.00;66.26;98571.50;5013587;28;9539;-60
2023/07/24 11:06:27;;;;;;;;;5.20;5.00;;;;;22.98;66.25;98571.72;5012578;28;8854;-60
2023/07/24 11:08:56;;;;;;;;;1.20;0.80;;;;;23.10;66.06;98572.59;5026872;28;8852;-59
2023/07/24 11:11:24;;;;;;;;;6.40;5.00;;;;;23.20;65.77;98563.84;5015983;28;8830;-59
2023/07/24 11:13:52;;;;;;;;;4.00;4.00;;;;;23.28;65.57;98564.34;5010783;28;8927;-60
2023/07/24 11:16:20;;;;;;;;;5.00;4.80;;;;;23.43;64.85;98561.97;5020539;28;8812;-58
2023/07/24 11:18:48;;;;;;;;;5.60;5.40;;;;;23.49;64.96;98560.19;5030664;28;8974;-60
2023/07/24 11:21:22;;;;;;;;;5.00;5.00;;;;;23.39;64.71;98554.53;5031222;28;9466;-60
2023/07/24 11:23:50;;;;;;;;;5.60;5.40;;;;;23.18;65.30;98564.13;5031979;28;9602;-59
2023/07/24 11:26:18;;;;;;;;;5.60;4.60;;;;;23.00;65.63;98553.31;5019392;28;8850;-59
2023/07/24 11:28:46;;;;;;;;;6.80;6.20;;;;;22.83;66.37;98565.13;5025434;28;8846;-59
2023/07/24 11:31:14;;;;;;;;;3.40;2.00;;;;;22.48;66.72;98569.63;5019737;28;8826;-60
2023/07/24 11:33:43;;;;;;;;;4.60;4.00;;;;;21.73;68.77;98581.84;5011376;28;8883;-59
2023/07/24 11:36:11;;;;;;;;;1.40;1.00;;;;;21.01;70.43;98573.56;5012213;28;8846;-59
2023/07/24 11:38:39;;;;;;;;;3.60;2.40;;;;;20.60;71.60;98558.88;5022086;28;8846;-59
2023/07/24 11:41:08;;;;;;;;;7.00;5.40;;;;;20.48;71.86;98555.22;5020723;28;8910;-60
2023/07/24 11:43:35;;;;;;;;;2.40;2.40;;;;;20.62;71.46;98545.94;5011192;28;8848;-58
2023/07/24 11:46:05;;;;;;;;;5.60;4.60;;;;;21.13;70.49;98533.06;5011091;28;9506;-60
2023/07/24 11:48:33;;;;;;;;;4.00;2.80;;;;;22.36;67.21;98509.00;5022037;28;8845;-58
2023/07/24 11:51:01;;;;;;;;;2.80;2.00;;;;;23.13;65.34;98504.19;5029539;28;8838;-59
2023/07/24 11:53:29;;;;;;;;;1.00;1.00;;;;;23.26;65.21;98486.84;5026075;28;8935;-59
2023/07/24 11:55:57;;;;;;;;;2.00;2.00;;;;;23.19;65.23;98478.81;5011995;28;8850;-59
2023/07/24 11:58:25;;;;;;;;;2.00;2.00;;;;;22.99;65.57;98483.75;5020150;28;8848;-58
2023/07/24 12:00:53;;;;;;;;;2.00;2.00;;;;;22.78;66.22;98486.25;5029265;28;8816;-58